Time;durP1;ratioP1;P1;durP2;ratioP2;P2;SDS_P1;SDS_P2;PMS_P1;PMS_P2;Temp;Humidity;BMP_temperature;BMP_pressure;BME280_temperature;BME280_humidity;BME280_pressure;Samples;Min_cycle;Max_cycle;Signal;HPM_P1;HPM_P2
2022/09/26 00:01:06;;;;;;;3.08;2.78;;;12.60;99.90;;;;;;5030574;28;20298;-83
2022/09/26 00:03:34;;;;;;;4.25;2.45;;;12.70;99.90;;;;;;5030057;28;20230;-79
2022/09/26 00:06:04;;;;;;;3.28;2.20;;;12.80;99.90;;;;;;5029425;28;20198;-78
2022/09/26 00:08:32;;;;;;;4.00;2.33;;;12.70;99.90;;;;;;5032604;28;20199;-79
2022/09/26 00:11:02;;;;;;;3.03;2.33;;;12.70;99.90;;;;;;5030207;28;20227;-79
2022/09/26 00:13:31;;;;;;;3.40;2.50;;;12.60;99.90;;;;;;5030647;28;20183;-83
2022/09/26 00:15:58;;;;;;;4.30;2.43;;;12.60;99.90;;;;;;5031360;28;20672;-79
2022/09/26 00:18:25;;;;;;;4.93;2.30;;;12.60;99.90;;;;;;5031697;28;20198;-79
2022/09/26 00:20:53;;;;;;;3.63;2.37;;;12.60;99.90;;;;;;5030172;28;20219;-79
2022/09/26 00:23:22;;;;;;;3.10;2.78;;;12.30;99.90;;;;;;5029837;28;20594;-79
2022/09/26 00:25:50;;;;;;;3.33;2.53;;;12.30;99.90;;;;;;5029920;28;20214;-79
2022/09/26 00:28:19;;;;;;;3.20;2.47;;;12.50;99.90;;;;;;5028431;28;20203;-80
2022/09/26 00:30:46;;;;;;;3.17;2.40;;;12.50;99.90;;;;;;5028845;28;20207;-80
2022/09/26 00:33:14;;;;;;;6.73;3.07;;;12.50;99.90;;;;;;5031410;28;20194;-81
2022/09/26 00:35:48;;;;;;;3.47;2.90;;;12.60;99.90;;;;;;5034136;28;20207;-79
2022/09/26 00:38:19;;;;;;;5.47;2.80;;;12.50;99.90;;;;;;5030845;28;20654;-80
2022/09/26 00:40:49;;;;;;;3.70;2.57;;;12.40;99.90;;;;;;5032077;28;20234;-79
2022/09/26 00:43:31;;;;;;;5.60;2.70;;;12.40;99.90;;;;;;5026459;28;20602;-79
2022/09/26 00:46:02;;;;;;;3.83;2.93;;;12.50;99.90;;;;;;5025813;28;20202;-81
2022/09/26 00:48:31;;;;;;;7.17;3.77;;;12.40;99.90;;;;;;5029976;28;20202;-79
2022/09/26 00:51:00;;;;;;;4.30;3.03;;;12.30;99.90;;;;;;5029824;28;20222;-81
2022/09/26 00:53:33;;;;;;;5.03;3.10;;;12.20;99.90;;;;;;5028371;28;20207;-79
2022/09/26 00:56:06;;;;;;;5.13;3.30;;;12.30;99.90;;;;;;5031454;28;20221;-80
2022/09/26 00:58:41;;;;;;;6.20;3.87;;;12.40;99.90;;;;;;5034687;28;20194;-79
2022/09/26 01:01:09;;;;;;;4.90;4.03;;;12.30;99.90;;;;;;5030667;28;20225;-79
2022/09/26 01:03:39;;;;;;;3.67;3.10;;;12.30;99.90;;;;;;5029927;28;20222;-78
2022/09/26 01:06:07;;;;;;;8.30;3.67;;;12.30;99.90;;;;;;5032171;28;20578;-79
2022/09/26 01:08:39;;;;;;;5.03;3.40;;;12.30;99.90;;;;;;5032383;28;20199;-79
2022/09/26 01:11:08;;;;;;;4.50;3.40;;;12.40;99.90;;;;;;5030346;28;20241;-79
2022/09/26 01:13:38;;;;;;;8.93;3.73;;;12.60;99.90;;;;;;5031395;28;20191;-80
2022/09/26 01:16:05;;;;;;;8.30;3.73;;;12.40;99.90;;;;;;5025644;28;20214;-79
2022/09/26 01:18:33;;;;;;;4.77;3.37;;;12.40;99.90;;;;;;5029564;28;20203;-82
2022/09/26 01:21:14;;;;;;;4.88;3.55;;;12.30;99.90;;;;;;5030702;28;20242;-82
2022/09/26 01:24:06;;;;;;;4.80;3.07;;;12.50;99.90;;;;;;5027217;28;20222;-79
2022/09/26 01:26:55;;;;;;;6.50;3.60;;;12.40;99.90;;;;;;5046872;28;20208;-79
2022/09/26 01:30:00;;;;;;;4.63;3.23;;;12.50;99.90;;;;;;5022752;28;20206;-81
2022/09/26 01:32:49;;;;;;;4.53;3.37;;;12.50;99.90;;;;;;5030659;28;20191;-79
2022/09/26 01:35:33;;;;;;;4.90;3.70;;;12.40;99.90;;;;;;5024787;28;20203;-78
2022/09/26 01:38:12;;;;;;;3.87;3.40;;;12.40;99.90;;;;;;5026142;28;20245;-79
2022/09/26 01:40:45;;;;;;;4.30;3.30;;;12.50;99.90;;;;;;5028595;28;20230;-79
2022/09/26 01:43:20;;;;;;;5.23;3.50;;;12.50;99.90;;;;;;5027574;28;20227;-79
2022/09/26 01:45:53;;;;;;;5.55;3.35;;;12.40;99.90;;;;;;5029343;28;20202;-79
2022/09/26 01:48:30;;;;;;;4.40;3.43;;;12.50;99.90;;;;;;5030714;28;20566;-79
2022/09/26 01:51:04;;;;;;;6.30;3.60;;;12.40;99.90;;;;;;5030579;28;20218;-83
2022/09/26 01:53:40;;;;;;;5.70;3.97;;;12.40;99.90;;;;;;5030395;28;20196;-81
2022/09/26 01:56:13;;;;;;;8.33;3.70;;;12.60;99.90;;;;;;5032363;28;20194;-79
2022/09/26 01:58:46;;;;;;;5.67;3.83;;;12.50;99.90;;;;;;5028457;28;20662;-79
2022/09/26 02:01:16;;;;;;;7.03;3.90;;;12.40;99.90;;;;;;5027359;28;20223;-79
2022/09/26 02:03:50;;;;;;;4.90;3.60;;;12.40;99.90;;;;;;5030682;28;20207;-79
2022/09/26 02:06:23;;;;;;;4.80;3.90;;;12.40;99.90;;;;;;5030379;28;20206;-79
2022/09/26 02:08:56;;;;;;;4.15;3.60;;;12.50;99.90;;;;;;5027287;28;20206;-78
2022/09/26 02:11:24;;;;;;;4.60;3.55;;;12.50;99.90;;;;;;5029239;28;20230;-79
2022/09/26 02:13:56;;;;;;;6.73;4.13;;;12.50;99.90;;;;;;5028929;28;20203;-79
2022/09/26 02:16:30;;;;;;;6.90;4.13;;;12.50;99.90;;;;;;5028079;28;20206;-79
2022/09/26 02:19:06;;;;;;;6.33;4.20;;;12.40;99.90;;;;;;5031471;28;20201;-79
2022/09/26 02:21:34;;;;;;;5.33;4.07;;;12.20;99.90;;;;;;5030076;28;20218;-79
2022/09/26 02:24:02;;;;;;;7.47;4.57;;;12.30;99.90;;;;;;5029000;28;20218;-79
2022/09/26 02:26:30;;;;;;;5.93;4.33;;;12.40;99.90;;;;;;5025361;28;20196;-79
2022/09/26 02:29:00;;;;;;;6.93;4.47;;;12.30;99.90;;;;;;5027206;28;20663;-79
2022/09/26 02:31:31;;;;;;;5.43;4.87;;;12.30;99.90;;;;;;5028528;28;20211;-79
2022/09/26 02:34:02;;;;;;;5.90;4.40;;;12.30;99.90;;;;;;5029271;28;20198;-80
2022/09/26 02:36:33;;;;;;;7.07;4.43;;;12.30;99.90;;;;;;5026835;28;20202;-80
2022/09/26 02:39:01;;;;;;;7.23;4.90;;;12.30;99.90;;;;;;5038768;28;20571;-78
2022/09/26 02:41:44;;;;;;;7.30;5.07;;;12.30;99.90;;;;;;5030367;28;20306;-82
2022/09/26 02:44:27;;;;;;;9.53;5.30;;;12.40;99.90;;;;;;5026733;28;20207;-79
2022/09/26 02:47:25;;;;;;;5.83;5.23;;;12.40;99.90;;;;;;5029986;28;20202;-79
2022/09/26 02:50:11;;;;;;;7.20;6.00;;;12.40;99.90;;;;;;5031693;28;20214;-79
2022/09/26 02:52:48;;;;;;;7.53;6.00;;;12.40;99.90;;;;;;5021776;28;20195;-79
2022/09/26 02:55:21;;;;;;;11.03;6.23;;;12.40;99.90;;;;;;5025501;28;20187;-79
2022/09/26 02:58:04;;;;;;;7.50;6.33;;;12.40;99.90;;;;;;5027723;28;20206;-79
2022/09/26 03:00:41;;;;;;;9.00;6.17;;;12.40;99.90;;;;;;5027796;28;20215;-79
2022/09/26 03:03:18;;;;;;;9.68;6.68;;;12.50;99.90;;;;;;5027165;28;20217;-79
2022/09/26 03:05:50;;;;;;;10.13;7.13;;;12.40;99.90;;;;;;5036717;28;20218;-79
2022/09/26 03:08:21;;;;;;;6.57;5.97;;;12.40;99.90;;;;;;5026932;28;20315;-79
2022/09/26 03:10:52;;;;;;;8.97;7.20;;;12.40;99.90;;;;;;5027285;28;20734;-80
2022/09/26 03:13:21;;;;;;;11.87;8.10;;;12.40;99.90;;;;;;5026988;28;20199;-79
2022/09/26 03:15:52;;;;;;;12.70;8.20;;;12.40;99.90;;;;;;5026578;28;20195;-79
2022/09/26 03:18:27;;;;;;;9.93;7.23;;;12.40;99.90;;;;;;5028520;28;20194;-79
2022/09/26 03:20:56;;;;;;;8.80;7.37;;;12.40;99.90;;;;;;5023254;28;20226;-79
2022/09/26 03:23:26;;;;;;;7.50;6.60;;;12.40;99.90;;;;;;5027357;28;20198;-79
2022/09/26 03:26:01;;;;;;;9.10;6.23;;;12.40;99.90;;;;;;5026801;28;20221;-79
2022/09/26 03:28:30;;;;;;;9.90;7.00;;;12.40;99.90;;;;;;5025341;28;20191;-79
2022/09/26 03:30:58;;;;;;;11.13;8.13;;;12.40;99.90;;;;;;5029510;28;20222;-80
2022/09/26 03:33:31;;;;;;;7.67;6.90;;;12.30;99.90;;;;;;5046879;23;20202;-81
2022/09/26 03:36:04;;;;;;;9.20;6.30;;;12.40;99.90;;;;;;5065992;28;20214;-83
2022/09/26 03:38:32;;;;;;;9.43;6.80;;;12.30;99.90;;;;;;5046846;28;20199;-83
2022/09/26 03:41:08;;;;;;;10.03;6.80;;;12.30;99.90;;;;;;5052236;28;20578;-83
2022/09/26 03:43:42;;;;;;;9.30;6.57;;;12.20;99.90;;;;;;5059682;28;20194;-83
2022/09/26 03:46:11;;;;;;;6.70;5.97;;;12.30;99.90;;;;;;5043436;28;20195;-83
2022/09/26 03:48:39;;;;;;;10.90;6.63;;;12.30;99.90;;;;;;5042894;28;20195;-83
2022/09/26 03:51:10;;;;;;;6.40;5.77;;;12.30;99.90;;;;;;5033860;28;20547;-83
2022/09/26 03:53:40;;;;;;;7.83;6.30;;;12.30;99.90;;;;;;5036513;28;20207;-83
2022/09/26 03:56:13;;;;;;;9.13;7.00;;;12.30;99.90;;;;;;5037811;28;20194;-83
2022/09/26 03:58:42;;;;;;;8.53;6.87;;;12.30;99.90;;;;;;5013712;28;20215;-83
2022/09/26 04:01:11;;;;;;;8.20;6.63;;;12.20;99.90;;;;;;5012060;28;20203;-84
2022/09/26 04:03:41;;;;;;;8.27;7.23;;;12.30;99.90;;;;;;5011892;28;20200;-84
2022/09/26 04:06:18;;;;;;;12.03;7.43;;;12.30;99.90;;;;;;5012832;28;20211;-84
2022/09/26 04:08:48;;;;;;;10.30;7.17;;;12.20;99.90;;;;;;5028803;28;20199;-84
2022/09/26 04:11:18;;;;;;;10.57;6.83;;;12.20;99.90;;;;;;5049423;28;20206;-85
2022/09/26 04:13:46;;;;;;;10.10;7.33;;;12.20;99.90;;;;;;5027613;28;20215;-84
2022/09/26 04:16:15;;;;;;;9.17;7.20;;;12.20;99.90;;;;;;5009577;28;20219;-84
2022/09/26 04:18:49;;;;;;;10.87;7.93;;;12.10;99.90;;;;;;5013074;28;20192;-84
2022/09/26 04:21:18;;;;;;;9.80;7.80;;;12.20;99.90;;;;;;5007733;28;20203;-84
2022/09/26 04:23:45;;;;;;;10.77;7.67;;;12.20;99.90;;;;;;4997733;28;20231;-84
2022/09/26 04:26:16;;;;;;;11.47;8.23;;;12.20;99.90;;;;;;5006995;28;20223;-84
2022/09/26 04:28:46;;;;;;;10.53;7.20;;;12.20;99.90;;;;;;5013264;28;20218;-84
2022/09/26 04:31:16;;;;;;;10.10;8.97;;;12.20;99.90;;;;;;5017540;28;20203;-84
2022/09/26 04:33:53;;;;;;;10.63;7.93;;;12.10;99.90;;;;;;5016774;28;20248;-84
2022/09/26 04:36:23;;;;;;;8.63;7.73;;;12.10;99.90;;;;;;5010946;28;20195;-84
2022/09/26 04:38:50;;;;;;;10.37;8.23;;;12.10;99.90;;;;;;5013222;28;20199;-84
2022/09/26 04:41:21;;;;;;;12.93;8.77;;;12.00;99.90;;;;;;5016807;28;20204;-84
2022/09/26 04:43:50;;;;;;;9.60;8.60;;;12.00;99.90;;;;;;5012925;28;20216;-85
2022/09/26 04:46:20;;;;;;;9.93;8.27;;;12.00;99.90;;;;;;5009926;28;20223;-84
2022/09/26 04:48:50;;;;;;;11.13;8.47;;;12.00;99.90;;;;;;5013608;28;20203;-84
2022/09/26 04:51:23;;;;;;;11.33;8.03;;;12.00;99.90;;;;;;5016713;28;20214;-84
2022/09/26 04:53:51;;;;;;;9.30;8.30;;;12.00;99.90;;;;;;5016603;28;20248;-84
2022/09/26 04:56:27;;;;;;;9.80;8.07;;;12.00;99.90;;;;;;5014780;28;20206;-84
2022/09/26 04:58:57;;;;;;;12.27;8.60;;;12.00;99.90;;;;;;5009871;28;20196;-84
2022/09/26 05:01:28;;;;;;;8.60;7.60;;;12.00;99.90;;;;;;5027837;28;20196;-84
2022/09/26 05:04:08;;;;;;;12.43;8.20;;;11.90;99.90;;;;;;5008536;28;20223;-84
2022/09/26 05:06:38;;;;;;;12.07;8.40;;;11.90;99.90;;;;;;5018774;28;20211;-84
2022/09/26 05:09:07;;;;;;;10.77;7.93;;;12.00;99.90;;;;;;5026497;28;20399;-84
2022/09/26 05:11:46;;;;;;;10.57;8.10;;;11.90;99.90;;;;;;5008854;28;20199;-84
2022/09/26 05:14:15;;;;;;;9.57;7.77;;;12.00;99.90;;;;;;5003852;28;20230;-84
2022/09/26 05:16:42;;;;;;;12.13;8.43;;;12.00;99.90;;;;;;5007302;28;20195;-84
2022/09/26 05:19:13;;;;;;;8.80;7.63;;;11.90;99.90;;;;;;5012388;28;20204;-84
2022/09/26 05:21:56;;;;;;;10.17;7.83;;;12.00;99.90;;;;;;5012557;28;20196;-84
2022/09/26 05:27:13;;;;;;;9.40;8.27;;;12.00;99.90;;;;;;5008042;28;20211;-85
2022/09/26 05:29:40;;;;;;;8.97;7.40;;;11.90;99.90;;;;;;5009543;28;20199;-84
2022/09/26 05:32:30;;;;;;;11.67;7.20;;;11.90;99.90;;;;;;5018840;28;20192;-85
2022/09/26 05:34:58;;;;;;;10.60;8.40;;;11.90;99.90;;;;;;5019365;28;20223;-86
2022/09/26 05:37:32;;;;;;;10.77;7.67;;;11.90;99.90;;;;;;5030002;28;20195;-85
2022/09/26 05:42:50;;;;;;;12.03;7.50;;;12.00;99.90;;;;;;5016311;28;20195;-86
2022/09/26 05:45:18;;;;;;;8.97;6.53;;;12.00;99.90;;;;;;5010206;28;20592;-85
2022/09/26 05:47:52;;;;;;;9.73;6.63;;;11.90;99.90;;;;;;5026629;28;20211;-84
2022/09/26 05:50:21;;;;;;;9.23;7.50;;;11.90;99.90;;;;;;5016184;28;20206;-85
2022/09/26 05:52:50;;;;;;;9.57;6.90;;;11.90;99.90;;;;;;5021437;28;20210;-85
2022/09/26 06:03:05;;;;;;;10.97;6.90;;;11.90;99.90;;;;;;4936549;28;20201;-84
2022/09/26 06:05:45;;;;;;;9.63;6.60;;;11.90;99.90;;;;;;4919565;29;20240;-84
2022/09/26 06:08:17;;;;;;;7.50;5.83;;;12.00;99.90;;;;;;4961397;28;20201;-85
2022/09/26 06:10:49;;;;;;;7.43;5.60;;;12.00;99.90;;;;;;4999646;28;20590;-85
2022/09/26 06:13:16;;;;;;;9.53;5.70;;;12.10;99.90;;;;;;5016807;28;20203;-85
2022/09/26 06:15:50;;;;;;;7.30;5.80;;;12.00;99.90;;;;;;5007804;28;20222;-84
2022/09/26 06:18:18;;;;;;;8.27;5.70;;;12.00;99.90;;;;;;5016359;28;20227;-84
2022/09/26 06:20:46;;;;;;;6.93;5.40;;;12.00;99.90;;;;;;5006632;28;20219;-84
2022/09/26 06:23:18;;;;;;;7.80;5.60;;;12.00;99.90;;;;;;5017399;28;20251;-85
2022/09/26 06:25:47;;;;;;;7.60;5.50;;;12.10;99.90;;;;;;5009628;28;20224;-83
2022/09/26 06:28:14;;;;;;;7.57;5.10;;;12.10;99.90;;;;;;5015328;28;20203;-84
2022/09/26 06:30:42;;;;;;;8.00;5.10;;;12.10;99.90;;;;;;5035633;28;20225;-83
2022/09/26 06:33:41;;;;;;;6.37;4.67;;;12.10;99.90;;;;;;5034345;28;20195;-83
2022/09/26 06:36:23;;;;;;;6.10;4.43;;;12.10;99.90;;;;;;5021942;28;20199;-85
2022/09/26 06:38:54;;;;;;;5.93;4.77;;;12.20;99.90;;;;;;5025094;28;20199;-84
2022/09/26 06:41:24;;;;;;;7.20;5.13;;;12.10;99.90;;;;;;5034373;28;20206;-84
2022/09/26 06:43:52;;;;;;;7.60;5.10;;;12.20;99.90;;;;;;5031270;28;20590;-85
2022/09/26 06:46:43;;;;;;;7.27;4.53;;;12.10;99.90;;;;;;5014278;28;20223;-85
2022/09/26 06:49:18;;;;;;;8.40;5.20;;;12.10;99.90;;;;;;5023795;28;20210;-85
2022/09/26 06:51:49;;;;;;;8.13;4.37;;;12.20;99.90;;;;;;5018532;28;20194;-85
2022/09/26 06:54:19;;;;;;;5.93;4.20;;;12.20;99.90;;;;;;5010972;28;20241;-85
2022/09/26 06:56:47;;;;;;;7.47;4.33;;;12.20;99.90;;;;;;5021679;28;20184;-85
2022/09/26 06:59:16;;;;;;;5.93;4.50;;;12.20;99.90;;;;;;5015283;28;20210;-84
2022/09/26 07:01:50;;;;;;;6.53;4.93;;;12.30;99.90;;;;;;5011638;28;20199;-85
2022/09/26 07:04:52;;;;;;;4.73;4.10;;;12.20;99.90;;;;;;5005468;28;20243;-84
2022/09/26 07:07:32;;;;;;;9.10;4.23;;;12.30;99.90;;;;;;5008689;28;20223;-87
2022/09/26 07:10:01;;;;;;;6.67;4.40;;;12.40;99.90;;;;;;5004650;28;20199;-87
2022/09/26 07:12:42;;;;;;;5.57;3.50;;;12.50;99.90;;;;;;5006758;28;20662;-87
2022/09/26 07:15:12;;;;;;;5.90;4.53;;;12.50;99.90;;;;;;5006274;28;20230;-87
2022/09/26 07:17:46;;;;;;;5.63;4.10;;;13.10;99.90;;;;;;5002161;28;20196;-89
2022/09/26 07:20:40;;;;;;;7.47;4.53;;;12.70;99.90;;;;;;5006136;28;20200;-88
2022/09/26 07:23:36;;;;;;;5.37;4.20;;;12.50;99.90;;;;;;5010647;28;20202;-87
2022/09/26 07:26:05;;;;;;;6.37;3.43;;;12.70;99.90;;;;;;5007188;28;20222;-87
2022/09/26 07:28:34;;;;;;;6.17;3.83;;;12.70;99.90;;;;;;5007480;28;20203;-87
2022/09/26 07:31:02;;;;;;;6.30;3.83;;;12.90;99.90;;;;;;5026973;28;20208;-84
2022/09/26 07:33:47;;;;;;;6.63;3.60;;;12.60;99.90;;;;;;5016613;28;20223;-85
2022/09/26 07:36:17;;;;;;;6.43;3.93;;;12.60;99.90;;;;;;5012835;28;20226;-87
2022/09/26 07:38:48;;;;;;;7.87;4.17;;;12.60;99.90;;;;;;5012758;28;20199;-85
2022/09/26 07:41:18;;;;;;;8.97;3.50;;;12.70;99.90;;;;;;5011417;28;20211;-81
2022/09/26 07:43:46;;;;;;;6.90;3.70;;;12.80;99.90;;;;;;5015195;28;20232;-85
2022/09/26 07:52:08;;;;;;;7.63;3.80;;;12.60;99.90;;;;;;5001955;28;20682;-83
2022/09/26 07:54:55;;;;;;;5.37;3.50;;;12.80;99.90;;;;;;5026478;28;20668;-84
2022/09/26 07:57:48;;;;;;;7.87;3.10;;;12.80;99.90;;;;;;5028198;28;20191;-84
2022/09/26 08:00:30;;;;;;;5.83;3.50;;;13.30;99.90;;;;;;5018621;28;20203;-84
2022/09/26 08:03:27;;;;;;;6.63;3.73;;;13.00;99.90;;;;;;5013189;28;20203;-84
2022/09/26 08:05:59;;;;;;;5.23;3.87;;;12.50;99.90;;;;;;5016519;28;20206;-85
2022/09/26 08:08:26;;;;;;;9.60;4.27;;;12.50;99.90;;;;;;5018781;28;20211;-84
2022/09/26 08:11:00;;;;;;;5.07;3.27;;;12.40;99.90;;;;;;5022103;28;20211;-83
2022/09/26 08:13:38;;;;;;;7.73;4.47;;;12.40;99.90;;;;;;5027718;28;20202;-83
2022/09/26 08:16:24;;;;;;;5.70;3.53;;;12.40;99.90;;;;;;5017371;28;20201;-84
2022/09/26 08:18:55;;;;;;;8.80;3.67;;;12.40;99.90;;;;;;5021363;28;20199;-85
2022/09/26 08:21:25;;;;;;;8.13;4.07;;;12.40;99.90;;;;;;5023877;28;20199;-82
2022/09/26 08:23:56;;;;;;;7.60;4.13;;;12.40;99.90;;;;;;5031254;28;20215;-82
2022/09/26 08:26:35;;;;;;;7.50;3.37;;;12.40;99.90;;;;;;5025591;28;20219;-83
2022/09/26 08:29:11;;;;;;;6.67;3.53;;;12.40;99.90;;;;;;5036985;28;20278;-83
2022/09/26 08:31:40;;;;;;;7.17;4.20;;;12.40;99.90;;;;;;5029721;28;20196;-82
2022/09/26 08:34:08;;;;;;;7.27;3.83;;;12.40;99.90;;;;;;5040665;28;20227;-83
2022/09/26 08:36:36;;;;;;;6.77;3.50;;;12.40;99.90;;;;;;5020955;28;20207;-82
2022/09/26 08:39:24;;;;;;;8.40;4.07;;;12.40;99.90;;;;;;4982655;28;20567;-84
2022/09/26 08:42:30;;;;;;;6.07;4.00;;;12.30;99.90;;;;;;5026808;28;20207;-83
2022/09/26 08:48:57;;;;;;;4.40;3.20;;;12.20;99.90;;;;;;5017795;28;20199;-83
2022/09/26 08:51:31;;;;;;;9.00;3.80;;;12.20;99.90;;;;;;5017932;28;20199;-84
2022/09/26 08:54:05;;;;;;;5.97;3.80;;;12.20;99.90;;;;;;5017854;28;20219;-81
2022/09/26 08:56:39;;;;;;;6.93;3.60;;;12.20;99.90;;;;;;5010577;28;20223;-81
2022/09/26 08:59:11;;;;;;;5.03;4.00;;;12.20;99.90;;;;;;5022233;28;20337;-82
2022/09/26 09:01:45;;;;;;;6.67;3.87;;;12.10;99.90;;;;;;5019513;28;20195;-82
2022/09/26 09:04:22;;;;;;;5.50;4.13;;;12.00;99.90;;;;;;5026454;28;20214;-83
2022/09/26 09:06:58;;;;;;;5.07;3.60;;;12.10;99.90;;;;;;5012040;28;20227;-82
2022/09/26 09:09:26;;;;;;;4.73;3.63;;;12.00;99.90;;;;;;5023515;28;20207;-82
2022/09/26 09:12:19;;;;;;;7.50;4.20;;;12.00;99.90;;;;;;5011762;28;20211;-82
2022/09/26 09:15:03;;;;;;;4.77;4.00;;;11.90;99.90;;;;;;5014818;28;20224;-81
2022/09/26 09:17:47;;;;;;;5.50;4.00;;;12.00;99.90;;;;;;5029762;28;20199;-81
2022/09/26 09:20:49;;;;;;;3.90;3.30;;;11.90;99.90;;;;;;5012105;28;20204;-82
2022/09/26 09:24:12;;;;;;;5.10;3.87;;;11.90;99.90;;;;;;4984011;28;20227;-82
2022/09/26 09:26:54;;;;;;;4.40;3.67;;;11.80;99.90;;;;;;5017226;28;20207;-82
2022/09/26 09:29:49;;;;;;;9.80;3.60;;;11.80;99.90;;;;;;5020993;28;20208;-83
2022/09/26 09:32:43;;;;;;;5.70;3.53;;;11.80;99.90;;;;;;5020451;28;20215;-82
2022/09/26 09:35:34;;;;;;;5.77;4.23;;;11.70;99.90;;;;;;5013658;28;20235;-82
2022/09/26 09:38:17;;;;;;;7.90;3.73;;;11.70;99.90;;;;;;5017444;28;20204;-83
2022/09/26 09:41:02;;;;;;;5.70;3.77;;;11.70;99.90;;;;;;5014877;28;20203;-82
2022/09/26 09:43:37;;;;;;;6.40;3.87;;;11.70;99.90;;;;;;5020853;28;20210;-81
2022/09/26 09:46:13;;;;;;;3.90;3.27;;;11.70;99.90;;;;;;5016395;28;20206;-81
2022/09/26 09:48:43;;;;;;;5.80;3.90;;;11.60;99.90;;;;;;5016078;28;20215;-81
2022/09/26 09:51:26;;;;;;;4.10;3.67;;;11.60;99.90;;;;;;5014932;28;20207;-82
2022/09/26 09:54:21;;;;;;;5.63;3.27;;;11.60;99.90;;;;;;5015342;28;20215;-82
2022/09/26 09:57:07;;;;;;;5.10;2.90;;;11.60;99.90;;;;;;5043317;23;20230;-83
2022/09/26 09:59:57;;;;;;;5.40;3.00;;;11.60;99.90;;;;;;5039797;28;20206;-81
2022/09/26 10:02:32;;;;;;;5.40;3.53;;;11.70;99.90;;;;;;5048190;28;20203;-82
2022/09/26 10:05:16;;;;;;;4.27;2.97;;;11.70;99.90;;;;;;5040035;28;20206;-81
2022/09/26 10:07:45;;;;;;;4.00;2.90;;;11.70;99.90;;;;;;5066863;28;20226;-81
2022/09/26 10:10:49;;;;;;;4.73;2.93;;;11.80;99.90;;;;;;4987633;28;20323;-80
2022/09/26 10:13:45;;;;;;;5.80;3.17;;;11.80;99.90;;;;;;5016562;28;20199;-82
2022/09/26 10:17:19;;;;;;;4.97;2.93;;;11.80;99.90;;;;;;5017901;28;20215;-80
2022/09/26 10:20:09;;;;;;;3.73;2.70;;;11.90;99.90;;;;;;5030802;28;22915;-81
2022/09/26 10:22:44;;;;;;;5.10;2.70;;;11.90;99.90;;;;;;5030904;28;20208;-80
2022/09/26 10:25:24;;;;;;;5.53;2.67;;;12.00;99.90;;;;;;5035072;28;20241;-80
2022/09/26 10:27:55;;;;;;;2.83;2.40;;;12.00;99.90;;;;;;5034848;28;20595;-81
2022/09/26 10:30:27;;;;;;;3.47;2.50;;;12.10;99.90;;;;;;5029169;28;20195;-81
2022/09/26 10:33:04;;;;;;;4.70;2.30;;;12.10;99.90;;;;;;5029327;28;20186;-82
2022/09/26 10:35:51;;;;;;;5.00;2.43;;;12.10;99.90;;;;;;5043822;28;20229;-81
2022/09/26 10:38:23;;;;;;;3.27;2.17;;;12.20;99.90;;;;;;5028003;28;20195;-81
2022/09/26 10:41:02;;;;;;;3.50;2.20;;;12.20;99.90;;;;;;5029770;28;20211;-82
2022/09/26 10:43:36;;;;;;;5.20;2.50;;;12.20;99.90;;;;;;5042336;28;20209;-83
2022/09/26 10:46:23;;;;;;;10.73;3.03;;;12.20;99.90;;;;;;5032120;28;20706;-81
2022/09/26 10:49:15;;;;;;;5.23;2.20;;;12.10;99.90;;;;;;5038675;28;20214;-81
2022/09/26 10:52:19;;;;;;;4.40;2.00;;;12.10;99.90;;;;;;5032450;28;20567;-81
2022/09/26 10:54:54;;;;;;;4.07;2.70;;;12.10;99.90;;;;;;5054011;28;20684;-82
2022/09/26 10:57:27;;;;;;;3.63;2.17;;;12.10;99.90;;;;;;5033592;28;20213;-83
2022/09/26 10:59:58;;;;;;;3.60;2.57;;;12.20;99.90;;;;;;5036921;28;20571;-82
2022/09/26 11:02:28;;;;;;;4.33;2.97;;;12.20;99.90;;;;;;5034017;28;20210;-81
2022/09/26 11:08:07;;;;;;;3.73;2.43;;;12.30;99.90;;;;;;5027904;28;20218;-84
2022/09/26 11:10:47;;;;;;;5.30;2.13;;;12.40;99.90;;;;;;5058173;28;20206;-81
2022/09/26 11:13:23;;;;;;;4.33;2.47;;;12.40;99.90;;;;;;5037298;28;20210;-81
2022/09/26 11:16:10;;;;;;;3.77;2.17;;;12.50;99.90;;;;;;5030851;28;20216;-81
2022/09/26 11:18:53;;;;;;;3.50;1.90;;;12.60;99.90;;;;;;5029645;28;20198;-83
2022/09/26 11:21:28;;;;;;;2.70;2.37;;;12.70;99.90;;;;;;5037849;28;20762;-83
2022/09/26 11:24:03;;;;;;;2.80;2.00;;;12.70;99.90;;;;;;5024454;28;20202;-80
2022/09/26 11:26:37;;;;;;;2.20;1.83;;;12.70;99.90;;;;;;5042805;28;20222;-79
2022/09/26 11:29:12;;;;;;;4.15;2.33;;;12.70;99.90;;;;;;5030825;28;20222;-81
2022/09/26 11:31:51;;;;;;;3.63;2.30;;;12.80;99.90;;;;;;5031338;28;20210;-80
2022/09/26 11:34:30;;;;;;;3.67;2.03;;;12.80;99.90;;;;;;5027690;28;20203;-85
2022/09/26 11:37:40;;;;;;;2.33;2.13;;;12.90;99.90;;;;;;5055190;28;20218;-82
2022/09/26 11:40:27;;;;;;;2.40;1.83;;;12.90;99.90;;;;;;5024342;28;20206;-80
2022/09/26 11:43:23;;;;;;;3.07;1.83;;;13.00;99.90;;;;;;5028801;28;20207;-80
2022/09/26 11:46:15;;;;;;;2.07;1.80;;;13.00;99.90;;;;;;5030464;28;20237;-82
2022/09/26 11:49:19;;;;;;;2.50;2.30;;;13.20;99.90;;;;;;5033299;28;20215;-81
2022/09/26 11:52:34;;;;;;;2.33;2.03;;;13.20;99.90;;;;;;5039288;28;20217;-84
2022/09/26 11:55:17;;;;;;;4.60;2.30;;;13.20;99.90;;;;;;5037340;28;20199;-80
2022/09/26 11:57:50;;;;;;;4.77;2.33;;;13.30;99.90;;;;;;5020567;28;20208;-80
2022/09/26 12:00:27;;;;;;;2.67;1.88;;;13.30;99.90;;;;;;5022833;28;20191;-80
2022/09/26 12:03:22;;;;;;;2.30;1.67;;;13.40;99.90;;;;;;5036462;28;20194;-81
2022/09/26 12:05:55;;;;;;;3.23;2.10;;;13.40;99.90;;;;;;5028108;28;20223;-80
2022/09/26 12:08:56;;;;;;;1.98;1.70;;;13.40;99.90;;;;;;5029211;28;20214;-83
2022/09/26 12:11:36;;;;;;;2.20;2.00;;;13.40;99.90;;;;;;5029852;28;20213;-80
2022/09/26 12:14:17;;;;;;;3.28;1.73;;;13.50;99.90;;;;;;5036205;28;20570;-80
2022/09/26 12:16:53;;;;;;;7.13;2.08;;;13.50;99.90;;;;;;5030186;28;20214;-82
2022/09/26 12:19:32;;;;;;;2.77;2.17;;;13.60;99.90;;;;;;5037620;28;20574;-79
2022/09/26 12:25:04;;;;;;;3.20;1.60;;;13.50;99.90;;;;;;5063100;28;20195;-81
2022/09/26 12:27:42;;;;;;;1.90;1.52;;;13.50;99.90;;;;;;5035697;28;20190;-79
2022/09/26 12:30:14;;;;;;;2.75;1.55;;;13.50;99.90;;;;;;5033622;28;20206;-80
2022/09/26 12:33:04;;;;;;;2.75;1.83;;;13.50;99.90;;;;;;5030092;28;20194;-79
2022/09/26 12:35:44;;;;;;;1.90;1.80;;;13.50;99.90;;;;;;5060947;28;20590;-79
2022/09/26 12:38:31;;;;;;;2.90;1.80;;;13.50;99.90;;;;;;5032760;28;20195;-81
2022/09/26 12:41:13;;;;;;;3.95;2.13;;;13.40;99.90;;;;;;5035222;28;20199;-79
2022/09/26 12:44:11;;;;;;;3.90;2.33;;;13.40;99.90;;;;;;5037129;28;20199;-79
2022/09/26 12:47:12;;;;;;;5.55;2.33;;;13.30;99.90;;;;;;5032993;28;20214;-79
2022/09/26 12:49:58;;;;;;;4.80;2.42;;;13.20;99.90;;;;;;5036483;28;20218;-79
2022/09/26 12:52:38;;;;;;;3.50;2.07;;;13.20;99.90;;;;;;5044447;28;20203;-79
2022/09/26 12:55:21;;;;;;;2.33;2.13;;;13.20;99.90;;;;;;5036803;28;20225;-80
2022/09/26 12:58:02;;;;;;;2.37;2.03;;;13.20;99.90;;;;;;5033454;28;20206;-79
2022/09/26 13:00:40;;;;;;;3.03;2.13;;;13.30;99.90;;;;;;5045923;28;20203;-79
2022/09/26 13:03:43;;;;;;;5.43;2.10;;;13.20;99.90;;;;;;5031913;28;20240;-79
2022/09/26 13:06:34;;;;;;;2.25;2.05;;;13.20;99.90;;;;;;5065795;28;20234;-80
2022/09/26 13:09:14;;;;;;;3.47;2.00;;;13.20;99.90;;;;;;5029163;28;20220;-80
2022/09/26 13:11:49;;;;;;;3.10;2.10;;;13.20;99.90;;;;;;5034283;28;20199;-79
2022/09/26 13:14:35;;;;;;;4.80;2.20;;;13.20;99.90;;;;;;5032552;28;20202;-80
2022/09/26 13:17:09;;;;;;;3.00;2.00;;;13.20;99.90;;;;;;5033992;28;20563;-81
2022/09/26 13:19:42;;;;;;;4.83;2.13;;;13.20;99.90;;;;;;5027363;28;20795;-79
2022/09/26 13:22:28;;;;;;;3.40;2.28;;;13.20;99.90;;;;;;5030556;28;20214;-79
2022/09/26 13:25:02;;;;;;;3.70;2.30;;;13.20;99.90;;;;;;5026203;28;20209;-79
2022/09/26 13:27:37;;;;;;;2.57;2.10;;;13.10;99.90;;;;;;5028689;28;20202;-79
2022/09/26 13:30:08;;;;;;;4.30;2.07;;;13.20;99.90;;;;;;5029029;28;20567;-82
2022/09/26 13:32:51;;;;;;;3.87;2.53;;;13.20;99.90;;;;;;5029121;28;20206;-79
2022/09/26 13:35:20;;;;;;;4.87;2.50;;;13.20;99.90;;;;;;5025353;28;20234;-80
2022/09/26 13:38:01;;;;;;;2.93;2.13;;;13.20;99.90;;;;;;5026081;28;20445;-79
2022/09/26 13:40:38;;;;;;;2.40;2.20;;;13.30;99.90;;;;;;5042270;28;20207;-80
2022/09/26 13:43:19;;;;;;;4.70;2.50;;;13.20;99.90;;;;;;5030055;28;20209;-81
2022/09/26 13:45:57;;;;;;;5.80;2.43;;;13.30;99.90;;;;;;5045280;28;20229;-80
2022/09/26 13:48:38;;;;;;;4.23;2.37;;;13.30;99.90;;;;;;5033291;28;20206;-79
2022/09/26 13:51:18;;;;;;;6.00;2.20;;;13.30;99.90;;;;;;5027350;28;20195;-82
2022/09/26 13:53:56;;;;;;;4.80;2.20;;;13.20;99.90;;;;;;5031324;28;20206;-80
2022/09/26 13:56:47;;;;;;;3.73;2.33;;;13.20;99.90;;;;;;5029783;28;20236;-83
2022/09/26 13:59:31;;;;;;;3.73;2.27;;;13.10;99.90;;;;;;5023478;28;20214;-79
2022/09/26 14:02:18;;;;;;;3.73;2.40;;;13.10;99.90;;;;;;5030497;28;20206;-79
2022/09/26 14:04:48;;;;;;;3.93;2.33;;;13.00;99.90;;;;;;5055874;28;20194;-83